sensor_id;sensor_type;location;lat;lon;timestamp;P1;durP1;ratioP1;P2;durP2;ratioP2
18659;SDS011;9459;50.254;19.014;2023-08-01T00:00:04;5.70;;;3.33;;
18659;SDS011;9459;50.254;19.014;2023-08-01T00:02:56;5.85;;;3.22;;
18659;SDS011;9459;50.254;19.014;2023-08-01T00:05:25;5.93;;;3.15;;
18659;SDS011;9459;50.254;19.014;2023-08-01T00:07:54;5.35;;;2.95;;
18659;SDS011;9459;50.254;19.014;2023-08-01T00:10:22;8.75;;;3.38;;
18659;SDS011;9459;50.254;19.014;2023-08-01T00:12:50;7.13;;;3.30;;
18659;SDS011;9459;50.254;19.014;2023-08-01T00:15:19;7.65;;;3.47;;
18659;SDS011;9459;50.254;19.014;2023-08-01T00:17:47;6.85;;;2.85;;
18659;SDS011;9459;50.254;19.014;2023-08-01T00:20:17;6.47;;;3.17;;
18659;SDS011;9459;50.254;19.014;2023-08-01T00:22:46;3.95;;;2.60;;
18659;SDS011;9459;50.254;19.014;2023-08-01T00:25:14;6.10;;;3.60;;
18659;SDS011;9459;50.254;19.014;2023-08-01T00:27:43;6.53;;;3.03;;
18659;SDS011;9459;50.254;19.014;2023-08-01T00:30:11;6.43;;;2.80;;
18659;SDS011;9459;50.254;19.014;2023-08-01T00:32:41;6.03;;;2.72;;
18659;SDS011;9459;50.254;19.014;2023-08-01T00:35:10;5.65;;;3.28;;
18659;SDS011;9459;50.254;19.014;2023-08-01T00:37:40;9.30;;;3.13;;
18659;SDS011;9459;50.254;19.014;2023-08-01T00:40:08;7.18;;;3.45;;
18659;SDS011;9459;50.254;19.014;2023-08-01T00:42:37;5.72;;;3.13;;
18659;SDS011;9459;50.254;19.014;2023-08-01T00:45:06;4.97;;;3.38;;
18659;SDS011;9459;50.254;19.014;2023-08-01T00:47:35;6.75;;;2.90;;
18659;SDS011;9459;50.254;19.014;2023-08-01T00:50:04;7.43;;;3.13;;
18659;SDS011;9459;50.254;19.014;2023-08-01T00:52:34;7.18;;;3.13;;
18659;SDS011;9459;50.254;19.014;2023-08-01T00:55:04;5.63;;;2.70;;
18659;SDS011;9459;50.254;19.014;2023-08-01T01:00:02;5.38;;;2.90;;
18659;SDS011;9459;50.254;19.014;2023-08-01T01:02:31;5.22;;;3.20;;
18659;SDS011;9459;50.254;19.014;2023-08-01T01:05:00;6.53;;;2.83;;
18659;SDS011;9459;50.254;19.014;2023-08-01T01:07:30;6.88;;;3.42;;
18659;SDS011;9459;50.254;19.014;2023-08-01T01:09:59;6.50;;;2.70;;
18659;SDS011;9459;50.254;19.014;2023-08-01T01:12:29;7.00;;;3.08;;
18659;SDS011;9459;50.254;19.014;2023-08-01T01:14:57;4.85;;;3.00;;
18659;SDS011;9459;50.254;19.014;2023-08-01T01:17:26;7.60;;;2.83;;
18659;SDS011;9459;50.254;19.014;2023-08-01T01:19:54;7.80;;;3.10;;
18659;SDS011;9459;50.254;19.014;2023-08-01T01:22:24;3.97;;;2.13;;
18659;SDS011;9459;50.254;19.014;2023-08-01T01:24:53;7.90;;;3.03;;
18659;SDS011;9459;50.254;19.014;2023-08-01T01:27:23;6.68;;;2.92;;
18659;SDS011;9459;50.254;19.014;2023-08-01T01:29:53;6.35;;;2.60;;
18659;SDS011;9459;50.254;19.014;2023-08-01T01:32:22;6.15;;;2.63;;
18659;SDS011;9459;50.254;19.014;2023-08-01T01:34:51;6.07;;;2.67;;
18659;SDS011;9459;50.254;19.014;2023-08-01T01:37:19;5.30;;;2.35;;
18659;SDS011;9459;50.254;19.014;2023-08-01T01:39:49;4.43;;;2.47;;
18659;SDS011;9459;50.254;19.014;2023-08-01T01:42:18;3.70;;;2.38;;
18659;SDS011;9459;50.254;19.014;2023-08-01T01:44:46;3.88;;;2.25;;
18659;SDS011;9459;50.254;19.014;2023-08-01T01:47:15;5.35;;;2.45;;
18659;SDS011;9459;50.254;19.014;2023-08-01T01:49:43;2.90;;;2.30;;
18659;SDS011;9459;50.254;19.014;2023-08-01T01:52:12;5.50;;;2.42;;
18659;SDS011;9459;50.254;19.014;2023-08-01T01:54:40;4.28;;;2.67;;
18659;SDS011;9459;50.254;19.014;2023-08-01T01:57:10;7.97;;;2.75;;
18659;SDS011;9459;50.254;19.014;2023-08-01T01:59:38;4.68;;;2.78;;
18659;SDS011;9459;50.254;19.014;2023-08-01T02:02:07;6.45;;;2.60;;
18659;SDS011;9459;50.254;19.014;2023-08-01T02:04:35;4.00;;;3.00;;
18659;SDS011;9459;50.254;19.014;2023-08-01T02:07:04;4.95;;;2.67;;
18659;SDS011;9459;50.254;19.014;2023-08-01T02:09:33;6.18;;;3.08;;
18659;SDS011;9459;50.254;19.014;2023-08-01T02:12:01;5.35;;;2.42;;
18659;SDS011;9459;50.254;19.014;2023-08-01T02:14:32;5.00;;;3.03;;
18659;SDS011;9459;50.254;19.014;2023-08-01T02:17:01;7.78;;;2.90;;
18659;SDS011;9459;50.254;19.014;2023-08-01T02:19:29;6.30;;;3.22;;
18659;SDS011;9459;50.254;19.014;2023-08-01T02:21:58;3.75;;;2.95;;
18659;SDS011;9459;50.254;19.014;2023-08-01T02:24:26;8.32;;;3.17;;
18659;SDS011;9459;50.254;19.014;2023-08-01T02:26:55;5.50;;;3.08;;
18659;SDS011;9459;50.254;19.014;2023-08-01T02:29:23;6.13;;;3.47;;
18659;SDS011;9459;50.254;19.014;2023-08-01T02:31:53;6.60;;;2.88;;
18659;SDS011;9459;50.254;19.014;2023-08-01T02:34:21;6.65;;;3.03;;
18659;SDS011;9459;50.254;19.014;2023-08-01T02:36:50;5.40;;;2.85;;
18659;SDS011;9459;50.254;19.014;2023-08-01T02:39:18;6.93;;;2.88;;
18659;SDS011;9459;50.254;19.014;2023-08-01T02:41:47;6.82;;;2.60;;
18659;SDS011;9459;50.254;19.014;2023-08-01T02:44:15;5.55;;;2.80;;
18659;SDS011;9459;50.254;19.014;2023-08-01T02:46:44;5.15;;;2.90;;
18659;SDS011;9459;50.254;19.014;2023-08-01T02:49:13;4.43;;;2.47;;
18659;SDS011;9459;50.254;19.014;2023-08-01T02:51:42;4.45;;;2.63;;
18659;SDS011;9459;50.254;19.014;2023-08-01T02:54:10;5.60;;;3.00;;
18659;SDS011;9459;50.254;19.014;2023-08-01T02:56:39;4.50;;;2.40;;
18659;SDS011;9459;50.254;19.014;2023-08-01T02:59:08;4.15;;;2.10;;
18659;SDS011;9459;50.254;19.014;2023-08-01T03:01:37;5.72;;;2.35;;
18659;SDS011;9459;50.254;19.014;2023-08-01T03:04:06;4.95;;;2.60;;
18659;SDS011;9459;50.254;19.014;2023-08-01T03:06:36;7.53;;;2.50;;
18659;SDS011;9459;50.254;19.014;2023-08-01T03:09:05;5.63;;;2.22;;
18659;SDS011;9459;50.254;19.014;2023-08-01T03:11:35;5.35;;;2.00;;
18659;SDS011;9459;50.254;19.014;2023-08-01T03:14:04;4.25;;;2.35;;
18659;SDS011;9459;50.254;19.014;2023-08-01T03:16:32;9.60;;;2.63;;
18659;SDS011;9459;50.254;19.014;2023-08-01T03:19:01;5.38;;;2.50;;
18659;SDS011;9459;50.254;19.014;2023-08-01T03:21:32;6.07;;;2.40;;
18659;SDS011;9459;50.254;19.014;2023-08-01T03:24:02;4.18;;;2.28;;
18659;SDS011;9459;50.254;19.014;2023-08-01T03:26:33;4.63;;;2.20;;
18659;SDS011;9459;50.254;19.014;2023-08-01T03:29:01;4.93;;;2.25;;
18659;SDS011;9459;50.254;19.014;2023-08-01T03:31:31;3.65;;;2.13;;
18659;SDS011;9459;50.254;19.014;2023-08-01T03:34:00;3.72;;;2.40;;
18659;SDS011;9459;50.254;19.014;2023-08-01T03:36:28;3.45;;;2.20;;
18659;SDS011;9459;50.254;19.014;2023-08-01T03:38:57;6.18;;;1.90;;
18659;SDS011;9459;50.254;19.014;2023-08-01T03:41:27;4.22;;;1.75;;
18659;SDS011;9459;50.254;19.014;2023-08-01T03:43:55;6.00;;;1.88;;
18659;SDS011;9459;50.254;19.014;2023-08-01T03:46:24;4.22;;;2.20;;
18659;SDS011;9459;50.254;19.014;2023-08-01T03:48:52;4.05;;;2.03;;
18659;SDS011;9459;50.254;19.014;2023-08-01T03:51:21;5.28;;;1.88;;
18659;SDS011;9459;50.254;19.014;2023-08-01T03:53:49;3.53;;;1.98;;
18659;SDS011;9459;50.254;19.014;2023-08-01T03:56:39;4.22;;;2.15;;
18659;SDS011;9459;50.254;19.014;2023-08-01T03:59:10;4.88;;;2.20;;
18659;SDS011;9459;50.254;19.014;2023-08-01T04:01:39;2.70;;;1.67;;
18659;SDS011;9459;50.254;19.014;2023-08-01T04:04:08;4.28;;;2.20;;
18659;SDS011;9459;50.254;19.014;2023-08-01T04:06:37;4.35;;;1.95;;
18659;SDS011;9459;50.254;19.014;2023-08-01T04:09:07;4.97;;;2.20;;
18659;SDS011;9459;50.254;19.014;2023-08-01T04:11:35;4.95;;;2.10;;
18659;SDS011;9459;50.254;19.014;2023-08-01T04:14:05;3.30;;;2.17;;
18659;SDS011;9459;50.254;19.014;2023-08-01T04:16:33;3.20;;;1.80;;
18659;SDS011;9459;50.254;19.014;2023-08-01T04:19:02;5.90;;;2.53;;
18659;SDS011;9459;50.254;19.014;2023-08-01T04:21:30;4.40;;;2.22;;
18659;SDS011;9459;50.254;19.014;2023-08-01T04:23:59;5.05;;;2.10;;
18659;SDS011;9459;50.254;19.014;2023-08-01T04:26:27;3.85;;;2.22;;
18659;SDS011;9459;50.254;19.014;2023-08-01T04:28:56;4.15;;;2.00;;
18659;SDS011;9459;50.254;19.014;2023-08-01T04:31:26;5.85;;;2.25;;
18659;SDS011;9459;50.254;19.014;2023-08-01T04:33:54;3.72;;;2.15;;
18659;SDS011;9459;50.254;19.014;2023-08-01T04:36:23;5.55;;;2.67;;
18659;SDS011;9459;50.254;19.014;2023-08-01T04:38:51;3.00;;;1.90;;
18659;SDS011;9459;50.254;19.014;2023-08-01T04:41:20;4.50;;;2.03;;
18659;SDS011;9459;50.254;19.014;2023-08-01T04:43:48;3.83;;;1.98;;
18659;SDS011;9459;50.254;19.014;2023-08-01T04:46:17;7.13;;;1.92;;
18659;SDS011;9459;50.254;19.014;2023-08-01T04:48:46;3.83;;;2.17;;
18659;SDS011;9459;50.254;19.014;2023-08-01T04:51:15;4.55;;;2.33;;
18659;SDS011;9459;50.254;19.014;2023-08-01T04:53:43;7.20;;;2.15;;
18659;SDS011;9459;50.254;19.014;2023-08-01T04:56:12;6.30;;;1.98;;
18659;SDS011;9459;50.254;19.014;2023-08-01T04:58:40;3.45;;;2.08;;
18659;SDS011;9459;50.254;19.014;2023-08-01T05:01:09;3.95;;;2.40;;
18659;SDS011;9459;50.254;19.014;2023-08-01T05:03:37;4.80;;;2.20;;
18659;SDS011;9459;50.254;19.014;2023-08-01T05:06:07;3.05;;;1.90;;
18659;SDS011;9459;50.254;19.014;2023-08-01T05:08:36;4.07;;;2.00;;
18659;SDS011;9459;50.254;19.014;2023-08-01T05:11:04;4.18;;;2.40;;
18659;SDS011;9459;50.254;19.014;2023-08-01T05:13:33;6.40;;;2.17;;
18659;SDS011;9459;50.254;19.014;2023-08-01T05:16:01;4.70;;;2.33;;
18659;SDS011;9459;50.254;19.014;2023-08-01T05:18:30;6.53;;;2.42;;
18659;SDS011;9459;50.254;19.014;2023-08-01T05:20:59;4.75;;;2.50;;
18659;SDS011;9459;50.254;19.014;2023-08-01T05:23:28;4.28;;;2.30;;
18659;SDS011;9459;50.254;19.014;2023-08-01T05:25:57;5.72;;;2.80;;
18659;SDS011;9459;50.254;19.014;2023-08-01T05:28:25;5.22;;;2.30;;
18659;SDS011;9459;50.254;19.014;2023-08-01T05:30:54;4.78;;;2.40;;
18659;SDS011;9459;50.254;19.014;2023-08-01T05:33:22;5.60;;;2.42;;
18659;SDS011;9459;50.254;19.014;2023-08-01T05:35:51;6.65;;;2.20;;
18659;SDS011;9459;50.254;19.014;2023-08-01T05:38:19;3.90;;;2.50;;
18659;SDS011;9459;50.254;19.014;2023-08-01T05:40:49;6.90;;;2.70;;
18659;SDS011;9459;50.254;19.014;2023-08-01T05:43:18;5.18;;;2.58;;
18659;SDS011;9459;50.254;19.014;2023-08-01T05:45:47;5.22;;;2.70;;
18659;SDS011;9459;50.254;19.014;2023-08-01T05:48:19;7.95;;;2.53;;
18659;SDS011;9459;50.254;19.014;2023-08-01T05:50:47;4.05;;;2.30;;
18659;SDS011;9459;50.254;19.014;2023-08-01T05:53:16;3.75;;;2.10;;
18659;SDS011;9459;50.254;19.014;2023-08-01T05:55:44;4.05;;;2.22;;
18659;SDS011;9459;50.254;19.014;2023-08-01T05:58:14;7.60;;;2.20;;
18659;SDS011;9459;50.254;19.014;2023-08-01T06:00:43;5.22;;;2.75;;
18659;SDS011;9459;50.254;19.014;2023-08-01T06:03:11;3.33;;;2.10;;
18659;SDS011;9459;50.254;19.014;2023-08-01T06:05:40;6.10;;;2.58;;
18659;SDS011;9459;50.254;19.014;2023-08-01T06:08:09;6.18;;;2.28;;
18659;SDS011;9459;50.254;19.014;2023-08-01T06:10:37;4.82;;;2.53;;
18659;SDS011;9459;50.254;19.014;2023-08-01T06:13:06;5.10;;;2.30;;
18659;SDS011;9459;50.254;19.014;2023-08-01T06:15:36;5.47;;;2.58;;
18659;SDS011;9459;50.254;19.014;2023-08-01T06:18:04;4.35;;;2.30;;
18659;SDS011;9459;50.254;19.014;2023-08-01T06:20:33;6.50;;;2.30;;
18659;SDS011;9459;50.254;19.014;2023-08-01T06:23:01;4.68;;;2.80;;
18659;SDS011;9459;50.254;19.014;2023-08-01T06:25:30;5.25;;;2.47;;
18659;SDS011;9459;50.254;19.014;2023-08-01T06:27:58;10.27;;;2.88;;
18659;SDS011;9459;50.254;19.014;2023-08-01T06:30:27;3.55;;;2.67;;
18659;SDS011;9459;50.254;19.014;2023-08-01T06:32:57;4.82;;;2.53;;
18659;SDS011;9459;50.254;19.014;2023-08-01T06:35:25;4.47;;;2.70;;
18659;SDS011;9459;50.254;19.014;2023-08-01T06:37:54;7.63;;;3.22;;
18659;SDS011;9459;50.254;19.014;2023-08-01T06:40:23;5.05;;;2.30;;
18659;SDS011;9459;50.254;19.014;2023-08-01T06:42:52;6.45;;;3.00;;
18659;SDS011;9459;50.254;19.014;2023-08-01T06:45:20;7.75;;;2.83;;
18659;SDS011;9459;50.254;19.014;2023-08-01T06:47:49;4.53;;;2.80;;
18659;SDS011;9459;50.254;19.014;2023-08-01T06:50:19;5.88;;;2.90;;
18659;SDS011;9459;50.254;19.014;2023-08-01T06:52:47;5.65;;;2.40;;
18659;SDS011;9459;50.254;19.014;2023-08-01T06:55:16;4.40;;;2.45;;
18659;SDS011;9459;50.254;19.014;2023-08-01T06:57:44;4.22;;;2.35;;
18659;SDS011;9459;50.254;19.014;2023-08-01T07:00:13;3.28;;;1.98;;
18659;SDS011;9459;50.254;19.014;2023-08-01T07:02:42;3.13;;;2.33;;
18659;SDS011;9459;50.254;19.014;2023-08-01T07:05:11;5.60;;;2.00;;
18659;SDS011;9459;50.254;19.014;2023-08-01T07:07:40;4.60;;;2.45;;
18659;SDS011;9459;50.254;19.014;2023-08-01T07:10:09;3.35;;;2.05;;
18659;SDS011;9459;50.254;19.014;2023-08-01T07:12:38;3.33;;;2.13;;
18659;SDS011;9459;50.254;19.014;2023-08-01T07:15:07;4.63;;;2.10;;
18659;SDS011;9459;50.254;19.014;2023-08-01T07:17:37;3.35;;;2.20;;
18659;SDS011;9459;50.254;19.014;2023-08-01T07:20:06;4.97;;;2.42;;
18659;SDS011;9459;50.254;19.014;2023-08-01T07:22:35;3.05;;;2.15;;
18659;SDS011;9459;50.254;19.014;2023-08-01T07:25:05;6.68;;;2.47;;
18659;SDS011;9459;50.254;19.014;2023-08-01T07:27:37;3.58;;;1.95;;
18659;SDS011;9459;50.254;19.014;2023-08-01T07:30:06;3.83;;;2.33;;
18659;SDS011;9459;50.254;19.014;2023-08-01T07:32:35;5.78;;;2.08;;
18659;SDS011;9459;50.254;19.014;2023-08-01T07:35:05;4.88;;;1.65;;
18659;SDS011;9459;50.254;19.014;2023-08-01T07:37:34;4.63;;;2.20;;
18659;SDS011;9459;50.254;19.014;2023-08-01T07:40:07;2.88;;;1.80;;
18659;SDS011;9459;50.254;19.014;2023-08-01T07:42:36;4.90;;;1.90;;
18659;SDS011;9459;50.254;19.014;2023-08-01T07:45:05;2.95;;;2.10;;
18659;SDS011;9459;50.254;19.014;2023-08-01T07:47:35;3.58;;;1.80;;
18659;SDS011;9459;50.254;19.014;2023-08-01T07:50:04;3.00;;;1.80;;
18659;SDS011;9459;50.254;19.014;2023-08-01T07:52:33;3.30;;;2.17;;
18659;SDS011;9459;50.254;19.014;2023-08-01T07:55:02;5.80;;;1.90;;
18659;SDS011;9459;50.254;19.014;2023-08-01T07:57:32;2.38;;;1.67;;
18659;SDS011;9459;50.254;19.014;2023-08-01T08:00:01;3.60;;;2.13;;
18659;SDS011;9459;50.254;19.014;2023-08-01T08:02:29;3.55;;;2.10;;
18659;SDS011;9459;50.254;19.014;2023-08-01T08:04:58;5.43;;;2.80;;
18659;SDS011;9459;50.254;19.014;2023-08-01T08:07:27;3.95;;;2.25;;
18659;SDS011;9459;50.254;19.014;2023-08-01T08:09:55;2.90;;;1.85;;
18659;SDS011;9459;50.254;19.014;2023-08-01T08:12:24;3.92;;;2.17;;
18659;SDS011;9459;50.254;19.014;2023-08-01T08:14:54;4.47;;;1.95;;
18659;SDS011;9459;50.254;19.014;2023-08-01T08:17:22;6.10;;;2.20;;
18659;SDS011;9459;50.254;19.014;2023-08-01T08:19:51;3.80;;;2.40;;
18659;SDS011;9459;50.254;19.014;2023-08-01T08:22:19;2.95;;;2.00;;
18659;SDS011;9459;50.254;19.014;2023-08-01T08:24:48;3.20;;;2.05;;
18659;SDS011;9459;50.254;19.014;2023-08-01T08:27:16;2.85;;;2.05;;
18659;SDS011;9459;50.254;19.014;2023-08-01T08:29:45;3.17;;;1.80;;
18659;SDS011;9459;50.254;19.014;2023-08-01T08:32:15;4.20;;;2.20;;
18659;SDS011;9459;50.254;19.014;2023-08-01T08:34:43;4.87;;;2.40;;
18659;SDS011;9459;50.254;19.014;2023-08-01T08:37:12;3.88;;;2.20;;
18659;SDS011;9459;50.254;19.014;2023-08-01T08:39:40;5.35;;;2.63;;
18659;SDS011;9459;50.254;19.014;2023-08-01T08:42:08;2.97;;;2.03;;
18659;SDS011;9459;50.254;19.014;2023-08-01T08:44:41;2.83;;;2.20;;
18659;SDS011;9459;50.254;19.014;2023-08-01T08:47:11;3.35;;;1.98;;
18659;SDS011;9459;50.254;19.014;2023-08-01T08:49:42;3.92;;;2.40;;
18659;SDS011;9459;50.254;19.014;2023-08-01T08:52:10;4.63;;;2.50;;
18659;SDS011;9459;50.254;19.014;2023-08-01T08:54:39;3.70;;;2.20;;
18659;SDS011;9459;50.254;19.014;2023-08-01T08:57:08;3.90;;;2.20;;
18659;SDS011;9459;50.254;19.014;2023-08-01T08:59:37;3.72;;;2.33;;
18659;SDS011;9459;50.254;19.014;2023-08-01T09:02:05;2.15;;;1.85;;
18659;SDS011;9459;50.254;19.014;2023-08-01T09:04:34;3.28;;;2.13;;
18659;SDS011;9459;50.254;19.014;2023-08-01T09:07:06;4.00;;;2.25;;
18659;SDS011;9459;50.254;19.014;2023-08-01T09:09:36;4.38;;;2.10;;
18659;SDS011;9459;50.254;19.014;2023-08-01T09:12:05;2.70;;;1.88;;
18659;SDS011;9459;50.254;19.014;2023-08-01T09:14:35;4.78;;;2.13;;
18659;SDS011;9459;50.254;19.014;2023-08-01T09:17:07;3.33;;;2.15;;
18659;SDS011;9459;50.254;19.014;2023-08-01T09:19:36;2.42;;;1.75;;
18659;SDS011;9459;50.254;19.014;2023-08-01T09:22:10;4.53;;;2.38;;
18659;SDS011;9459;50.254;19.014;2023-08-01T09:24:49;2.78;;;2.10;;
18659;SDS011;9459;50.254;19.014;2023-08-01T09:27:20;3.33;;;2.22;;
18659;SDS011;9459;50.254;19.014;2023-08-01T09:29:49;4.93;;;2.50;;
18659;SDS011;9459;50.254;19.014;2023-08-01T09:32:17;5.07;;;2.63;;
18659;SDS011;9459;50.254;19.014;2023-08-01T09:34:46;4.30;;;2.10;;
18659;SDS011;9459;50.254;19.014;2023-08-01T09:37:16;5.10;;;2.15;;
18659;SDS011;9459;50.254;19.014;2023-08-01T09:39:52;3.33;;;2.30;;
18659;SDS011;9459;50.254;19.014;2023-08-01T09:42:21;4.32;;;2.25;;
18659;SDS011;9459;50.254;19.014;2023-08-01T09:44:50;3.08;;;2.10;;
18659;SDS011;9459;50.254;19.014;2023-08-01T09:47:18;4.70;;;2.40;;
18659;SDS011;9459;50.254;19.014;2023-08-01T09:49:48;3.78;;;2.45;;
18659;SDS011;9459;50.254;19.014;2023-08-01T09:52:27;3.28;;;2.28;;
18659;SDS011;9459;50.254;19.014;2023-08-01T09:54:56;3.90;;;2.47;;
18659;SDS011;9459;50.254;19.014;2023-08-01T09:57:25;6.28;;;2.38;;
18659;SDS011;9459;50.254;19.014;2023-08-01T09:59:57;3.83;;;2.17;;
18659;SDS011;9459;50.254;19.014;2023-08-01T10:02:28;4.45;;;2.20;;
18659;SDS011;9459;50.254;19.014;2023-08-01T10:05:00;2.15;;;1.80;;
18659;SDS011;9459;50.254;19.014;2023-08-01T10:07:30;4.32;;;2.50;;
18659;SDS011;9459;50.254;19.014;2023-08-01T10:09:59;3.78;;;2.45;;
18659;SDS011;9459;50.254;19.014;2023-08-01T10:12:27;3.58;;;2.28;;
18659;SDS011;9459;50.254;19.014;2023-08-01T10:14:56;3.25;;;2.30;;
18659;SDS011;9459;50.254;19.014;2023-08-01T10:17:25;4.53;;;2.80;;
18659;SDS011;9459;50.254;19.014;2023-08-01T10:19:55;3.72;;;2.42;;
18659;SDS011;9459;50.254;19.014;2023-08-01T10:22:24;4.90;;;2.88;;
18659;SDS011;9459;50.254;19.014;2023-08-01T10:24:55;3.80;;;2.45;;
18659;SDS011;9459;50.254;19.014;2023-08-01T10:27:24;4.97;;;2.88;;
18659;SDS011;9459;50.254;19.014;2023-08-01T10:29:56;4.63;;;2.42;;
18659;SDS011;9459;50.254;19.014;2023-08-01T10:32:28;5.35;;;2.63;;
18659;SDS011;9459;50.254;19.014;2023-08-01T10:34:58;3.85;;;2.53;;
18659;SDS011;9459;50.254;19.014;2023-08-01T10:37:38;4.05;;;2.80;;
18659;SDS011;9459;50.254;19.014;2023-08-01T10:40:09;5.03;;;2.67;;
18659;SDS011;9459;50.254;19.014;2023-08-01T10:42:42;3.13;;;2.83;;
18659;SDS011;9459;50.254;19.014;2023-08-01T10:45:21;5.15;;;3.20;;
18659;SDS011;9459;50.254;19.014;2023-08-01T10:48:05;5.10;;;2.60;;
18659;SDS011;9459;50.254;19.014;2023-08-01T10:50:35;3.00;;;2.58;;
18659;SDS011;9459;50.254;19.014;2023-08-01T10:53:04;5.57;;;2.88;;
18659;SDS011;9459;50.254;19.014;2023-08-01T10:55:41;4.03;;;2.72;;
18659;SDS011;9459;50.254;19.014;2023-08-01T10:58:10;4.38;;;2.65;;
18659;SDS011;9459;50.254;19.014;2023-08-01T11:00:39;4.70;;;3.00;;
18659;SDS011;9459;50.254;19.014;2023-08-01T11:03:08;3.45;;;2.67;;
18659;SDS011;9459;50.254;19.014;2023-08-01T11:05:37;4.05;;;2.75;;
18659;SDS011;9459;50.254;19.014;2023-08-01T11:08:05;5.40;;;2.70;;
18659;SDS011;9459;50.254;19.014;2023-08-01T11:10:34;4.10;;;2.45;;
18659;SDS011;9459;50.254;19.014;2023-08-01T11:13:04;3.22;;;2.72;;
18659;SDS011;9459;50.254;19.014;2023-08-01T11:15:36;4.63;;;2.80;;
18659;SDS011;9459;50.254;19.014;2023-08-01T11:18:05;4.60;;;2.70;;
18659;SDS011;9459;50.254;19.014;2023-08-01T11:20:38;4.20;;;3.05;;
18659;SDS011;9459;50.254;19.014;2023-08-01T11:23:07;4.15;;;2.50;;
18659;SDS011;9459;50.254;19.014;2023-08-01T11:25:36;8.50;;;2.60;;
18659;SDS011;9459;50.254;19.014;2023-08-01T11:28:08;4.15;;;3.10;;
18659;SDS011;9459;50.254;19.014;2023-08-01T11:30:37;3.53;;;3.05;;
18659;SDS011;9459;50.254;19.014;2023-08-01T11:33:15;5.50;;;3.47;;
18659;SDS011;9459;50.254;19.014;2023-08-01T11:35:45;4.38;;;3.28;;
18659;SDS011;9459;50.254;19.014;2023-08-01T11:38:13;4.28;;;3.08;;
18659;SDS011;9459;50.254;19.014;2023-08-01T11:40:42;3.95;;;3.20;;
18659;SDS011;9459;50.254;19.014;2023-08-01T11:43:12;5.07;;;2.90;;
18659;SDS011;9459;50.254;19.014;2023-08-01T11:45:50;6.78;;;3.40;;
18659;SDS011;9459;50.254;19.014;2023-08-01T11:48:19;5.72;;;3.65;;
18659;SDS011;9459;50.254;19.014;2023-08-01T11:50:49;5.13;;;3.20;;
18659;SDS011;9459;50.254;19.014;2023-08-01T11:53:18;4.85;;;2.97;;
18659;SDS011;9459;50.254;19.014;2023-08-01T11:55:47;5.68;;;3.15;;
18659;SDS011;9459;50.254;19.014;2023-08-01T11:58:28;7.10;;;3.63;;
18659;SDS011;9459;50.254;19.014;2023-08-01T12:01:04;5.90;;;3.47;;
18659;SDS011;9459;50.254;19.014;2023-08-01T12:03:41;4.13;;;3.20;;
18659;SDS011;9459;50.254;19.014;2023-08-01T12:06:11;4.63;;;3.42;;
18659;SDS011;9459;50.254;19.014;2023-08-01T12:08:41;7.03;;;3.20;;
18659;SDS011;9459;50.254;19.014;2023-08-01T12:11:17;4.60;;;3.35;;
18659;SDS011;9459;50.254;19.014;2023-08-01T12:13:48;4.43;;;3.53;;
18659;SDS011;9459;50.254;19.014;2023-08-01T12:16:28;5.43;;;3.00;;
18659;SDS011;9459;50.254;19.014;2023-08-01T12:18:57;4.90;;;3.25;;
18659;SDS011;9459;50.254;19.014;2023-08-01T12:21:27;5.22;;;2.80;;
18659;SDS011;9459;50.254;19.014;2023-08-01T12:23:56;5.47;;;3.45;;
18659;SDS011;9459;50.254;19.014;2023-08-01T12:26:25;4.93;;;3.00;;
18659;SDS011;9459;50.254;19.014;2023-08-01T12:28:55;5.32;;;3.10;;
18659;SDS011;9459;50.254;19.014;2023-08-01T12:31:24;5.18;;;3.53;;
18659;SDS011;9459;50.254;19.014;2023-08-01T12:33:52;4.78;;;3.10;;
18659;SDS011;9459;50.254;19.014;2023-08-01T12:36:21;6.32;;;2.92;;
18659;SDS011;9459;50.254;19.014;2023-08-01T12:38:49;4.68;;;3.20;;
18659;SDS011;9459;50.254;19.014;2023-08-01T12:41:18;4.18;;;3.28;;
18659;SDS011;9459;50.254;19.014;2023-08-01T12:43:47;3.45;;;3.13;;
18659;SDS011;9459;50.254;19.014;2023-08-01T12:46:17;4.47;;;3.17;;
18659;SDS011;9459;50.254;19.014;2023-08-01T12:48:45;4.72;;;3.33;;
18659;SDS011;9459;50.254;19.014;2023-08-01T12:51:14;4.80;;;3.22;;
18659;SDS011;9459;50.254;19.014;2023-08-01T12:53:42;3.78;;;3.00;;
18659;SDS011;9459;50.254;19.014;2023-08-01T12:56:11;3.83;;;2.85;;
18659;SDS011;9459;50.254;19.014;2023-08-01T12:58:39;5.72;;;2.95;;
18659;SDS011;9459;50.254;19.014;2023-08-01T13:01:09;4.68;;;2.97;;
18659;SDS011;9459;50.254;19.014;2023-08-01T13:03:38;4.38;;;3.00;;
18659;SDS011;9459;50.254;19.014;2023-08-01T13:06:09;3.75;;;2.75;;
18659;SDS011;9459;50.254;19.014;2023-08-01T13:08:39;5.95;;;2.67;;
18659;SDS011;9459;50.254;19.014;2023-08-01T13:11:11;5.15;;;3.00;;
18659;SDS011;9459;50.254;19.014;2023-08-01T13:13:40;3.83;;;2.80;;
18659;SDS011;9459;50.254;19.014;2023-08-01T13:16:10;4.30;;;2.95;;
18659;SDS011;9459;50.254;19.014;2023-08-01T13:18:40;4.97;;;3.10;;
18659;SDS011;9459;50.254;19.014;2023-08-01T13:21:12;3.67;;;2.83;;
18659;SDS011;9459;50.254;19.014;2023-08-01T13:23:41;5.45;;;2.67;;
18659;SDS011;9459;50.254;19.014;2023-08-01T13:26:09;5.57;;;2.70;;
18659;SDS011;9459;50.254;19.014;2023-08-01T13:28:38;4.20;;;3.15;;
18659;SDS011;9459;50.254;19.014;2023-08-01T13:31:06;6.00;;;3.10;;
18659;SDS011;9459;50.254;19.014;2023-08-01T13:33:35;4.60;;;3.30;;
18659;SDS011;9459;50.254;19.014;2023-08-01T13:36:05;5.38;;;2.72;;
18659;SDS011;9459;50.254;19.014;2023-08-01T13:38:34;4.45;;;3.08;;
18659;SDS011;9459;50.254;19.014;2023-08-01T13:41:02;4.70;;;3.40;;
18659;SDS011;9459;50.254;19.014;2023-08-01T13:43:33;5.13;;;3.03;;
18659;SDS011;9459;50.254;19.014;2023-08-01T13:46:07;4.50;;;3.38;;
18659;SDS011;9459;50.254;19.014;2023-08-01T13:48:54;3.85;;;2.75;;
18659;SDS011;9459;50.254;19.014;2023-08-01T13:51:24;4.82;;;3.10;;
18659;SDS011;9459;50.254;19.014;2023-08-01T13:53:55;4.07;;;3.30;;
18659;SDS011;9459;50.254;19.014;2023-08-01T13:56:26;3.00;;;2.58;;
18659;SDS011;9459;50.254;19.014;2023-08-01T13:58:54;3.58;;;2.70;;
18659;SDS011;9459;50.254;19.014;2023-08-01T14:01:23;3.45;;;2.78;;
18659;SDS011;9459;50.254;19.014;2023-08-01T14:03:51;4.57;;;3.13;;
18659;SDS011;9459;50.254;19.014;2023-08-01T14:06:20;4.97;;;3.00;;
18659;SDS011;9459;50.254;19.014;2023-08-01T14:08:50;3.17;;;2.83;;
18659;SDS011;9459;50.254;19.014;2023-08-01T14:11:18;3.90;;;3.08;;
18659;SDS011;9459;50.254;19.014;2023-08-01T14:13:47;4.32;;;3.15;;
18659;SDS011;9459;50.254;19.014;2023-08-01T14:16:16;4.25;;;2.80;;
18659;SDS011;9459;50.254;19.014;2023-08-01T14:18:44;4.15;;;3.13;;
18659;SDS011;9459;50.254;19.014;2023-08-01T14:21:13;3.05;;;2.45;;
18659;SDS011;9459;50.254;19.014;2023-08-01T14:23:41;4.60;;;2.92;;
18659;SDS011;9459;50.254;19.014;2023-08-01T14:26:11;4.38;;;3.25;;
18659;SDS011;9459;50.254;19.014;2023-08-01T14:28:39;5.07;;;3.05;;
18659;SDS011;9459;50.254;19.014;2023-08-01T14:31:08;7.40;;;2.85;;
18659;SDS011;9459;50.254;19.014;2023-08-01T14:33:36;4.20;;;2.53;;
18659;SDS011;9459;50.254;19.014;2023-08-01T14:36:07;3.83;;;2.85;;
18659;SDS011;9459;50.254;19.014;2023-08-01T14:38:36;3.63;;;3.08;;
18659;SDS011;9459;50.254;19.014;2023-08-01T14:41:05;4.32;;;3.00;;
18659;SDS011;9459;50.254;19.014;2023-08-01T14:43:49;4.90;;;2.65;;
18659;SDS011;9459;50.254;19.014;2023-08-01T14:46:18;4.05;;;3.35;;
18659;SDS011;9459;50.254;19.014;2023-08-01T14:48:46;4.00;;;2.90;;
18659;SDS011;9459;50.254;19.014;2023-08-01T14:51:14;3.30;;;2.80;;
18659;SDS011;9459;50.254;19.014;2023-08-01T14:53:43;3.97;;;2.28;;
18659;SDS011;9459;50.254;19.014;2023-08-01T14:56:11;3.95;;;2.63;;
18659;SDS011;9459;50.254;19.014;2023-08-01T14:58:40;4.68;;;3.13;;
18659;SDS011;9459;50.254;19.014;2023-08-01T15:01:13;3.72;;;2.42;;
18659;SDS011;9459;50.254;19.014;2023-08-01T15:03:42;3.72;;;2.83;;